createdAt,value
2016-10-07T11:26:19.263Z,990.52
2016-10-07T11:27:28.648Z,990.12
2016-10-07T11:27:51.688Z,990.01
2016-10-07T11:29:01.075Z,989.85
2016-10-07T11:30:10.544Z,989.66
2016-10-07T11:31:20.725Z,989.49
2016-10-07T11:32:30.106Z,989.31
2016-10-07T11:33:39.541Z,989.18
2016-10-07T11:34:48.938Z,986.24
2016-10-07T11:35:59.308Z,985.22
2016-10-07T11:37:08.744Z,985.86
2016-10-07T11:38:18.588Z,986.09
2016-10-07T11:39:28.486Z,986.28
2016-10-07T11:40:37.914Z,986.34
2016-10-07T11:41:48.374Z,986.28
2016-10-07T11:42:58.152Z,986.22
2016-10-07T11:44:07.491Z,986.22
2016-10-07T11:45:17.206Z,986.13
2016-10-07T11:46:26.248Z,986
2016-10-07T11:47:35.306Z,985.82
2016-10-07T11:48:45.447Z,985.56
2016-10-07T11:49:55.939Z,985.36
2016-10-07T11:51:05.296Z,985.19
2016-10-07T11:52:15.828Z,985
2016-10-07T11:53:25.482Z,984.84
2016-10-07T11:54:35.836Z,984.66
2016-10-07T11:55:46.636Z,984.51
2016-10-07T11:56:56.509Z,984.32
2016-10-07T11:58:06.662Z,984.21
2016-10-07T11:59:16.643Z,984.06
2016-10-07T12:00:28.784Z,983.97
2016-10-07T12:01:38.807Z,983.83
2016-10-07T12:02:48.034Z,983.75
2016-10-07T12:03:58.644Z,983.64
2016-10-07T12:05:08.533Z,983.52
2016-10-07T12:06:18.892Z,983.41
2016-10-07T12:07:29.640Z,983.37
2016-10-07T12:08:39.417Z,983.29
2016-10-07T12:09:51.089Z,983.26
2016-10-07T12:11:01.193Z,983.18
2016-10-07T12:12:11.603Z,983.12
2016-10-07T12:13:21.755Z,983.14
2016-10-07T12:14:31.561Z,983.1
2016-10-07T12:15:42.143Z,983.01
2016-10-07T12:16:53.365Z,982.98
2016-10-07T12:18:02.932Z,982.93
2016-10-07T12:19:12.667Z,982.89
2016-10-07T12:20:23.199Z,982.86
2016-10-07T12:21:32.773Z,982.85
2016-10-07T12:22:42.296Z,982.77
2016-10-07T12:23:53.127Z,982.77
2016-10-07T12:25:03.524Z,982.72
2016-10-07T12:26:13.522Z,982.64
2016-10-07T12:27:23.105Z,982.64
2016-10-07T12:28:32.840Z,982.62
2016-10-07T12:29:42.614Z,982.56
2016-10-07T12:30:53.548Z,982.57
2016-10-07T12:32:05.161Z,982.56
2016-10-07T12:33:15.408Z,982.5
2016-10-07T12:34:25.976Z,982.49
2016-10-07T12:35:36.687Z,982.43
2016-10-07T12:36:46.432Z,982.48
2016-10-07T12:37:56.859Z,982.41
2016-10-07T12:39:07.003Z,982.42
2016-10-07T12:40:17.623Z,982.57
2016-10-07T12:41:27.917Z,982.56
2016-10-07T12:42:38.913Z,982.65
2016-10-07T12:43:49.086Z,982.93
2016-10-07T12:44:59.415Z,983.09
2016-10-07T12:46:10.130Z,983.14
2016-10-07T12:47:21.546Z,982.98
2016-10-07T12:48:31.535Z,982.86
2016-10-07T12:49:48.543Z,982.7
2016-10-07T12:50:59.300Z,982.67
2016-10-07T12:52:12.242Z,982.58
2016-10-07T12:53:21.736Z,982.47
2016-10-07T12:54:31.439Z,982.39
2016-10-07T12:55:42.801Z,982.31
2016-10-07T12:56:55.397Z,982.26
2016-10-07T12:58:05.952Z,982.2
2016-10-07T12:59:16.453Z,982.21
2016-10-07T13:00:27.054Z,982.25
